sensor_id;sensor_type;location;lat;lon;timestamp;pressure;altitude;pressure_sealevel;temperature;humidity
76358;BME280;65185;21.060;105.826;2023-12-22T00:01:58;103210.19;;;13.99;47.31
76358;BME280;65185;21.060;105.826;2023-12-22T00:04:25;103215.50;;;14.04;46.49
76358;BME280;65185;21.060;105.826;2023-12-22T00:06:52;103225.09;;;14.07;46.69
76358;BME280;65185;21.060;105.826;2023-12-22T00:09:21;103232.78;;;14.00;46.94
76358;BME280;65185;21.060;105.826;2023-12-22T00:11:48;103233.69;;;14.02;45.29
76358;BME280;65185;21.060;105.826;2023-12-22T00:14:15;103226.75;;;14.03;44.80
76358;BME280;65185;21.060;105.826;2023-12-22T00:16:42;103220.63;;;14.01;46.12
76358;BME280;65185;21.060;105.826;2023-12-22T00:19:09;103232.78;;;14.00;45.66
76358;BME280;65185;21.060;105.826;2023-12-22T00:21:35;103228.53;;;14.04;46.81
76358;BME280;65185;21.060;105.826;2023-12-22T00:24:03;103238.03;;;14.02;45.19
76358;BME280;65185;21.060;105.826;2023-12-22T00:26:30;103248.53;;;14.05;46.42
76358;BME280;65185;21.060;105.826;2023-12-22T00:28:57;103253.72;;;14.03;46.07
76358;BME280;65185;21.060;105.826;2023-12-22T00:31:24;103258.03;;;14.03;45.46
76358;BME280;65185;21.060;105.826;2023-12-22T00:33:51;103258.75;;;13.96;45.97
76358;BME280;65185;21.060;105.826;2023-12-22T00:36:18;103265.72;;;13.97;45.08
76358;BME280;65185;21.060;105.826;2023-12-22T00:38:49;103260.47;;;13.95;45.29
76358;BME280;65185;21.060;105.826;2023-12-22T00:41:16;103273.53;;;13.97;45.75
76358;BME280;65185;21.060;105.826;2023-12-22T00:43:43;103268.28;;;13.94;47.05
76358;BME280;65185;21.060;105.826;2023-12-22T00:46:10;103268.22;;;13.91;46.52
76358;BME280;65185;21.060;105.826;2023-12-22T00:48:37;103267.38;;;13.93;46.05
76358;BME280;65185;21.060;105.826;2023-12-22T00:51:06;103271.72;;;13.93;44.77
76358;BME280;65185;21.060;105.826;2023-12-22T00:53:33;103269.97;;;13.92;45.46
76358;BME280;65185;21.060;105.826;2023-12-22T00:56:00;103279.59;;;13.94;45.79
76358;BME280;65185;21.060;105.826;2023-12-22T00:58:30;103285.66;;;13.95;46.83
76358;BME280;65185;21.060;105.826;2023-12-22T01:00:57;103291.75;;;13.95;46.28
76358;BME280;65185;21.060;105.826;2023-12-22T01:03:24;103296.91;;;13.92;45.36
76358;BME280;65185;21.060;105.826;2023-12-22T01:05:51;103301.28;;;13.95;46.05
76358;BME280;65185;21.060;105.826;2023-12-22T01:08:18;103292.63;;;13.94;46.18
76358;BME280;65185;21.060;105.826;2023-12-22T01:10:47;103302.09;;;13.91;45.77
76358;BME280;65185;21.060;105.826;2023-12-22T01:13:14;103310.88;;;13.96;45.35
76358;BME280;65185;21.060;105.826;2023-12-22T01:15:41;103307.31;;;13.91;45.03
76358;BME280;65185;21.060;105.826;2023-12-22T01:18:10;103304.63;;;13.89;45.95
76358;BME280;65185;21.060;105.826;2023-12-22T01:20:38;103313.44;;;13.93;44.98
76358;BME280;65185;21.060;105.826;2023-12-22T01:23:05;103327.34;;;13.95;46.30
76358;BME280;65185;21.060;105.826;2023-12-22T01:25:32;103335.25;;;13.98;45.11
76358;BME280;65185;21.060;105.826;2023-12-22T01:27:59;103336.09;;;13.97;44.23
76358;BME280;65185;21.060;105.826;2023-12-22T01:30:26;103344.00;;;14.00;45.92
76358;BME280;65185;21.060;105.826;2023-12-22T01:32:53;103345.78;;;14.02;45.90
76358;BME280;65185;21.060;105.826;2023-12-22T01:35:20;103355.34;;;14.02;44.49
76358;BME280;65185;21.060;105.826;2023-12-22T01:37:47;103354.44;;;14.00;45.23
76358;BME280;65185;21.060;105.826;2023-12-22T01:40:15;103363.22;;;14.05;46.17
76358;BME280;65185;21.060;105.826;2023-12-22T01:42:44;103360.63;;;14.05;46.33
76358;BME280;65185;21.060;105.826;2023-12-22T01:45:11;103365.84;;;14.05;45.21
76358;BME280;65185;21.060;105.826;2023-12-22T01:47:39;103369.25;;;14.02;45.06
76358;BME280;65185;21.060;105.826;2023-12-22T01:50:07;103370.16;;;14.04;44.73
76358;BME280;65185;21.060;105.826;2023-12-22T01:52:38;103376.28;;;14.07;45.61
76358;BME280;65185;21.060;105.826;2023-12-22T01:55:05;103380.00;;;14.16;45.70
76358;BME280;65185;21.060;105.826;2023-12-22T01:57:34;103392.16;;;14.16;44.34
76358;BME280;65185;21.060;105.826;2023-12-22T02:00:01;103386.91;;;14.14;45.13
76358;BME280;65185;21.060;105.826;2023-12-22T02:02:30;103399.16;;;14.18;46.78
76358;BME280;65185;21.060;105.826;2023-12-22T02:04:58;103393.22;;;14.24;46.99
76358;BME280;65185;21.060;105.826;2023-12-22T02:07:27;103399.41;;;14.27;47.13
76358;BME280;65185;21.060;105.826;2023-12-22T02:09:54;103391.59;;;14.27;45.10
76358;BME280;65185;21.060;105.826;2023-12-22T02:12:21;103393.47;;;14.33;44.12
76358;BME280;65185;21.060;105.826;2023-12-22T02:14:48;103399.63;;;14.36;44.37
76358;BME280;65185;21.060;105.826;2023-12-22T02:17:24;103391.75;;;14.35;44.54
76358;BME280;65185;21.060;105.826;2023-12-22T02:19:53;103396.13;;;14.36;45.89
76358;BME280;65185;21.060;105.826;2023-12-22T02:22:22;103401.94;;;14.24;43.83
76358;BME280;65185;21.060;105.826;2023-12-22T02:24:49;103394.91;;;14.22;45.06
76358;BME280;65185;21.060;105.826;2023-12-22T02:27:28;103397.69;;;14.28;44.47
76358;BME280;65185;21.060;105.826;2023-12-22T02:30:09;103391.81;;;14.38;45.21
76358;BME280;65185;21.060;105.826;2023-12-22T02:32:45;103387.84;;;14.53;43.71
76358;BME280;65185;21.060;105.826;2023-12-22T02:35:20;103385.69;;;14.76;43.02
76358;BME280;65185;21.060;105.826;2023-12-22T02:37:47;103378.19;;;14.92;42.21
76358;BME280;65185;21.060;105.826;2023-12-22T02:40:16;103376.75;;;15.07;43.24
76358;BME280;65185;21.060;105.826;2023-12-22T02:42:47;103369.25;;;15.25;42.88
76358;BME280;65185;21.060;105.826;2023-12-22T02:45:14;103370.13;;;15.25;43.39
76358;BME280;65185;21.060;105.826;2023-12-22T02:47:41;103372.78;;;15.27;44.08
76358;BME280;65185;21.060;105.826;2023-12-22T02:50:09;103365.13;;;15.39;41.59
76358;BME280;65185;21.060;105.826;2023-12-22T02:52:37;103364.53;;;15.52;41.80
76358;BME280;65185;21.060;105.826;2023-12-22T02:55:04;103356.97;;;15.67;40.98
76358;BME280;65185;21.060;105.826;2023-12-22T02:57:32;103359.06;;;15.89;39.72
76358;BME280;65185;21.060;105.826;2023-12-22T02:59:59;103355.00;;;16.11;39.98
76358;BME280;65185;21.060;105.826;2023-12-22T03:02:26;103347.41;;;16.29;40.13
76358;BME280;65185;21.060;105.826;2023-12-22T03:04:53;103337.16;;;16.44;39.79
76358;BME280;65185;21.060;105.826;2023-12-22T03:07:20;103339.00;;;16.49;39.83
76358;BME280;65185;21.060;105.826;2023-12-22T03:09:47;103335.66;;;16.59;38.89
76358;BME280;65185;21.060;105.826;2023-12-22T03:12:14;103327.03;;;16.68;39.11
76358;BME280;65185;21.060;105.826;2023-12-22T03:14:45;103316.66;;;16.77;39.21
76358;BME280;65185;21.060;105.826;2023-12-22T03:17:12;103317.66;;;16.89;38.91
76358;BME280;65185;21.060;105.826;2023-12-22T03:19:39;103309.88;;;16.97;37.50
76358;BME280;65185;21.060;105.826;2023-12-22T03:22:07;103305.47;;;16.93;37.15
76358;BME280;65185;21.060;105.826;2023-12-22T03:24:34;103300.22;;;16.88;37.81
76358;BME280;65185;21.060;105.826;2023-12-22T03:27:02;103298.44;;;16.86;38.02
76358;BME280;65185;21.060;105.826;2023-12-22T03:29:29;103288.84;;;16.89;38.15
76358;BME280;65185;21.060;105.826;2023-12-22T03:31:57;103292.19;;;16.76;37.33
76358;BME280;65185;21.060;105.826;2023-12-22T03:34:24;103274.56;;;16.57;40.27
76358;BME280;65185;21.060;105.826;2023-12-22T03:36:51;103269.94;;;16.40;40.22
76358;BME280;65185;21.060;105.826;2023-12-22T03:39:18;103269.16;;;16.47;39.13
76358;BME280;65185;21.060;105.826;2023-12-22T03:41:44;103269.28;;;16.54;39.43
76358;BME280;65185;21.060;105.826;2023-12-22T03:44:11;103262.38;;;16.59;38.47
76358;BME280;65185;21.060;105.826;2023-12-22T03:46:38;103255.53;;;16.72;37.75
76358;BME280;65185;21.060;105.826;2023-12-22T03:49:05;103253.91;;;16.84;37.62
76358;BME280;65185;21.060;105.826;2023-12-22T03:51:32;103245.13;;;16.79;38.11
76358;BME280;65185;21.060;105.826;2023-12-22T03:53:59;103232.97;;;16.86;37.78
76358;BME280;65185;21.060;105.826;2023-12-22T03:56:27;103238.25;;;16.92;37.58
76358;BME280;65185;21.060;105.826;2023-12-22T03:58:54;103233.03;;;16.93;37.61
76358;BME280;65185;21.060;105.826;2023-12-22T04:01:22;103212.06;;;16.90;36.82
76358;BME280;65185;21.060;105.826;2023-12-22T04:03:49;103215.50;;;16.85;38.24
76358;BME280;65185;21.060;105.826;2023-12-22T04:06:16;103206.81;;;16.90;36.79
76358;BME280;65185;21.060;105.826;2023-12-22T04:08:43;103197.03;;;16.73;37.60
76358;BME280;65185;21.060;105.826;2023-12-22T04:11:10;103191.94;;;16.85;37.69
76358;BME280;65185;21.060;105.826;2023-12-22T04:13:38;103189.25;;;16.80;38.39
76358;BME280;65185;21.060;105.826;2023-12-22T04:16:05;103177.94;;;16.83;37.44
76358;BME280;65185;21.060;105.826;2023-12-22T04:18:32;103177.97;;;16.86;37.89
76358;BME280;65185;21.060;105.826;2023-12-22T04:20:58;103169.19;;;16.81;36.46
76358;BME280;65185;21.060;105.826;2023-12-22T04:23:26;103170.03;;;16.75;37.11
76358;BME280;65185;21.060;105.826;2023-12-22T04:25:53;103166.50;;;16.73;37.57
76358;BME280;65185;21.060;105.826;2023-12-22T04:28:20;103158.72;;;16.79;37.64
76358;BME280;65185;21.060;105.826;2023-12-22T04:30:47;103145.63;;;16.81;36.40
76358;BME280;65185;21.060;105.826;2023-12-22T04:33:14;103144.75;;;16.83;36.90
76358;BME280;65185;21.060;105.826;2023-12-22T04:35:41;103133.44;;;16.87;37.61
76358;BME280;65185;21.060;105.826;2023-12-22T04:38:08;103128.22;;;16.87;36.85
76358;BME280;65185;21.060;105.826;2023-12-22T04:40:35;103122.16;;;16.91;37.04
76358;BME280;65185;21.060;105.826;2023-12-22T04:43:02;103125.66;;;16.96;37.18
76358;BME280;65185;21.060;105.826;2023-12-22T04:45:30;103108.22;;;17.00;36.79
76358;BME280;65185;21.060;105.826;2023-12-22T04:47:57;103102.19;;;17.12;37.30
76358;BME280;65185;21.060;105.826;2023-12-22T04:50:24;103102.19;;;17.13;37.00
76358;BME280;65185;21.060;105.826;2023-12-22T04:52:51;103090.88;;;17.17;36.66
76358;BME280;65185;21.060;105.826;2023-12-22T04:55:18;103084.75;;;17.12;37.13
76358;BME280;65185;21.060;105.826;2023-12-22T04:57:46;103077.78;;;17.14;37.39
76358;BME280;65185;21.060;105.826;2023-12-22T05:00:14;103072.53;;;17.19;36.45
76358;BME280;65185;21.060;105.826;2023-12-22T05:02:41;103061.22;;;17.24;36.15
76358;BME280;65185;21.060;105.826;2023-12-22T05:05:09;103060.38;;;17.27;36.53
76358;BME280;65185;21.060;105.826;2023-12-22T05:07:38;103058.63;;;17.32;37.15
76358;BME280;65185;21.060;105.826;2023-12-22T05:10:06;103032.44;;;17.26;35.70
76358;BME280;65185;21.060;105.826;2023-12-22T05:12:34;103030.66;;;17.23;36.28
76358;BME280;65185;21.060;105.826;2023-12-22T05:15:01;103020.19;;;17.22;36.26
76358;BME280;65185;21.060;105.826;2023-12-22T05:17:28;103019.28;;;17.23;36.30
76358;BME280;65185;21.060;105.826;2023-12-22T05:19:55;103017.56;;;17.23;37.20
76358;BME280;65185;21.060;105.826;2023-12-22T05:22:22;103007.09;;;17.23;36.26
76358;BME280;65185;21.060;105.826;2023-12-22T05:24:49;102999.22;;;17.22;35.07
76358;BME280;65185;21.060;105.826;2023-12-22T05:27:16;102986.97;;;17.19;36.77
76358;BME280;65185;21.060;105.826;2023-12-22T05:29:43;102977.41;;;17.27;37.49
76358;BME280;65185;21.060;105.826;2023-12-22T05:32:09;102977.41;;;17.32;36.83
76358;BME280;65185;21.060;105.826;2023-12-22T05:34:37;102964.34;;;17.36;35.59
76358;BME280;65185;21.060;105.826;2023-12-22T05:37:04;102956.56;;;17.51;36.66
76358;BME280;65185;21.060;105.826;2023-12-22T05:39:31;102952.19;;;17.58;34.99
76358;BME280;65185;21.060;105.826;2023-12-22T05:41:58;102953.03;;;17.55;35.07
76358;BME280;65185;21.060;105.826;2023-12-22T05:44:25;102941.69;;;17.53;35.03
76358;BME280;65185;21.060;105.826;2023-12-22T05:46:56;102923.38;;;17.62;35.03
76358;BME280;65185;21.060;105.826;2023-12-22T05:49:24;102921.63;;;17.58;36.40
76358;BME280;65185;21.060;105.826;2023-12-22T05:51:51;102924.22;;;17.61;36.21
76358;BME280;65185;21.060;105.826;2023-12-22T05:54:19;102922.47;;;17.56;35.73
76358;BME280;65185;21.060;105.826;2023-12-22T05:56:46;102919.84;;;17.50;36.37
76358;BME280;65185;21.060;105.826;2023-12-22T05:59:13;102905.81;;;17.43;37.52
76358;BME280;65185;21.060;105.826;2023-12-22T06:01:41;102911.91;;;17.41;37.28
76358;BME280;65185;21.060;105.826;2023-12-22T06:04:08;102918.03;;;17.38;36.46
76358;BME280;65185;21.060;105.826;2023-12-22T06:06:36;102904.94;;;17.37;36.48
76358;BME280;65185;21.060;105.826;2023-12-22T06:09:05;102899.72;;;17.46;36.33
76358;BME280;65185;21.060;105.826;2023-12-22T06:11:32;102892.72;;;17.42;36.16
76358;BME280;65185;21.060;105.826;2023-12-22T06:13:59;102891.88;;;17.49;37.16
76358;BME280;65185;21.060;105.826;2023-12-22T06:16:26;102885.72;;;17.45;36.48
76358;BME280;65185;21.060;105.826;2023-12-22T06:18:53;102876.97;;;17.46;36.26
76358;BME280;65185;21.060;105.826;2023-12-22T06:21:20;102873.47;;;17.43;37.65
76358;BME280;65185;21.060;105.826;2023-12-22T06:23:47;102876.09;;;17.43;37.21
76358;BME280;65185;21.060;105.826;2023-12-22T06:26:15;102874.34;;;17.46;37.52
76358;BME280;65185;21.060;105.826;2023-12-22T06:28:42;102861.25;;;17.39;36.23
76358;BME280;65185;21.060;105.826;2023-12-22T06:31:18;102867.38;;;17.39;36.79
76358;BME280;65185;21.060;105.826;2023-12-22T06:33:45;102850.78;;;17.40;37.08
76358;BME280;65185;21.060;105.826;2023-12-22T06:36:23;102849.06;;;17.50;36.77
76358;BME280;65185;21.060;105.826;2023-12-22T06:38:52;102838.59;;;17.51;37.67
76358;BME280;65185;21.060;105.826;2023-12-22T06:41:22;102843.81;;;17.48;36.19
76358;BME280;65185;21.060;105.826;2023-12-22T06:43:50;102845.56;;;17.48;37.16
76358;BME280;65185;21.060;105.826;2023-12-22T06:46:22;102840.31;;;17.48;36.08
76358;BME280;65185;21.060;105.826;2023-12-22T06:48:49;102825.47;;;17.50;35.90
76358;BME280;65185;21.060;105.826;2023-12-22T06:51:25;102824.56;;;17.43;35.76
76358;BME280;65185;21.060;105.826;2023-12-22T06:53:53;102828.09;;;17.48;35.49
76358;BME280;65185;21.060;105.826;2023-12-22T06:56:27;102831.59;;;17.53;36.74
76358;BME280;65185;21.060;105.826;2023-12-22T06:58:57;102825.47;;;17.56;37.07
76358;BME280;65185;21.060;105.826;2023-12-22T07:01:27;102821.09;;;17.53;36.00
76358;BME280;65185;21.060;105.826;2023-12-22T07:03:54;102812.38;;;17.53;35.61
76358;BME280;65185;21.060;105.826;2023-12-22T07:06:23;102817.59;;;17.47;34.65
76358;BME280;65185;21.060;105.826;2023-12-22T07:11:44;102814.13;;;17.55;35.95
76358;BME280;65185;21.060;105.826;2023-12-22T07:14:12;102816.75;;;17.52;36.86
76358;BME280;65185;21.060;105.826;2023-12-22T07:16:39;102809.75;;;17.50;36.50
76358;BME280;65185;21.060;105.826;2023-12-22T07:19:06;102805.38;;;17.52;37.52
76358;BME280;65185;21.060;105.826;2023-12-22T07:21:33;102799.25;;;17.50;35.31
76358;BME280;65185;21.060;105.826;2023-12-22T07:24:01;102801.00;;;17.48;35.16
76358;BME280;65185;21.060;105.826;2023-12-22T07:26:28;102790.50;;;17.43;33.73
76358;BME280;65185;21.060;105.826;2023-12-22T07:28:55;102788.75;;;17.41;35.25
76358;BME280;65185;21.060;105.826;2023-12-22T07:31:22;102779.16;;;17.37;34.76
76358;BME280;65185;21.060;105.826;2023-12-22T07:33:49;102780.00;;;17.39;35.34
76358;BME280;65185;21.060;105.826;2023-12-22T07:36:16;102776.53;;;17.43;36.68
76358;BME280;65185;21.060;105.826;2023-12-22T07:38:45;102770.41;;;17.44;36.28
76358;BME280;65185;21.060;105.826;2023-12-22T07:41:12;102774.81;;;17.52;36.73
76358;BME280;65185;21.060;105.826;2023-12-22T07:43:39;102772.19;;;17.52;36.69
76358;BME280;65185;21.060;105.826;2023-12-22T07:46:08;102766.94;;;17.54;36.63
76358;BME280;65185;21.060;105.826;2023-12-22T07:48:35;102765.19;;;17.56;36.47
76358;BME280;65185;21.060;105.826;2023-12-22T07:51:03;102759.94;;;17.57;35.32
76358;BME280;65185;21.060;105.826;2023-12-22T07:53:29;102752.94;;;17.61;35.43
76358;BME280;65185;21.060;105.826;2023-12-22T07:55:56;102753.84;;;17.60;35.48
76358;BME280;65185;21.060;105.826;2023-12-22T07:58:25;102740.72;;;17.58;36.73
76358;BME280;65185;21.060;105.826;2023-12-22T08:00:52;102745.97;;;17.57;37.67
76358;BME280;65185;21.060;105.826;2023-12-22T08:03:19;102732.84;;;17.55;38.06
76358;BME280;65185;21.060;105.826;2023-12-22T08:05:46;102728.50;;;17.56;36.24
76358;BME280;65185;21.060;105.826;2023-12-22T08:08:13;102739.88;;;17.56;36.96
76358;BME280;65185;21.060;105.826;2023-12-22T08:10:40;102735.47;;;17.54;36.89
76358;BME280;65185;21.060;105.826;2023-12-22T08:13:07;102736.38;;;17.53;37.12
76358;BME280;65185;21.060;105.826;2023-12-22T08:15:34;102744.22;;;17.53;37.78
76358;BME280;65185;21.060;105.826;2023-12-22T08:18:01;102731.13;;;17.51;37.88
76358;BME280;65185;21.060;105.826;2023-12-22T08:20:27;102728.50;;;17.48;37.59
76358;BME280;65185;21.060;105.826;2023-12-22T08:22:55;102728.50;;;17.50;38.72
76358;BME280;65185;21.060;105.826;2023-12-22T08:25:22;102739.84;;;17.52;38.41
76358;BME280;65185;21.060;105.826;2023-12-22T08:27:49;102734.63;;;17.50;38.81
76358;BME280;65185;21.060;105.826;2023-12-22T08:30:16;102731.13;;;17.48;37.39
76358;BME280;65185;21.060;105.826;2023-12-22T08:32:43;102729.38;;;17.46;37.49
76358;BME280;65185;21.060;105.826;2023-12-22T08:35:11;102721.50;;;17.41;38.02
76358;BME280;65185;21.060;105.826;2023-12-22T08:37:38;102718.88;;;17.38;38.04
76358;BME280;65185;21.060;105.826;2023-12-22T08:40:06;102711.03;;;17.37;38.39
76358;BME280;65185;21.060;105.826;2023-12-22T08:42:33;102703.16;;;17.34;38.66
76358;BME280;65185;21.060;105.826;2023-12-22T08:45:00;102710.13;;;17.32;38.60
76358;BME280;65185;21.060;105.826;2023-12-22T08:47:28;102707.53;;;17.29;38.34
76358;BME280;65185;21.060;105.826;2023-12-22T08:49:56;102701.41;;;17.22;38.38
76358;BME280;65185;21.060;105.826;2023-12-22T08:52:22;102703.19;;;17.22;38.94
76358;BME280;65185;21.060;105.826;2023-12-22T08:54:50;102702.28;;;17.21;38.76
76358;BME280;65185;21.060;105.826;2023-12-22T08:57:17;102704.03;;;17.18;38.94
76358;BME280;65185;21.060;105.826;2023-12-22T08:59:44;102700.53;;;17.17;38.58
76358;BME280;65185;21.060;105.826;2023-12-22T09:02:11;102692.69;;;17.14;39.44
76358;BME280;65185;21.060;105.826;2023-12-22T09:04:38;102692.69;;;17.13;40.23
76358;BME280;65185;21.060;105.826;2023-12-22T09:07:05;102691.81;;;17.11;40.16
76358;BME280;65185;21.060;105.826;2023-12-22T09:09:32;102692.69;;;17.08;39.90
76358;BME280;65185;21.060;105.826;2023-12-22T09:11:59;102690.97;;;17.07;39.69
76358;BME280;65185;21.060;105.826;2023-12-22T09:14:26;102693.53;;;17.06;39.77
76358;BME280;65185;21.060;105.826;2023-12-22T09:16:54;102690.06;;;17.02;39.16
76358;BME280;65185;21.060;105.826;2023-12-22T09:19:22;102691.81;;;16.98;39.87
76358;BME280;65185;21.060;105.826;2023-12-22T09:21:49;102685.72;;;17.00;40.25
76358;BME280;65185;21.060;105.826;2023-12-22T09:24:16;102683.09;;;16.98;40.21
76358;BME280;65185;21.060;105.826;2023-12-22T09:26:43;102683.06;;;16.96;39.95
76358;BME280;65185;21.060;105.826;2023-12-22T09:29:10;102691.84;;;16.92;40.48
76358;BME280;65185;21.060;105.826;2023-12-22T09:31:37;102688.34;;;16.90;40.46
76358;BME280;65185;21.060;105.826;2023-12-22T09:34:04;102690.06;;;16.90;40.81
76358;BME280;65185;21.060;105.826;2023-12-22T09:36:32;102698.78;;;16.87;40.29
76358;BME280;65185;21.060;105.826;2023-12-22T09:38:59;102696.16;;;16.89;40.43
76358;BME280;65185;21.060;105.826;2023-12-22T09:41:26;102697.91;;;16.85;40.29
76358;BME280;65185;21.060;105.826;2023-12-22T09:43:56;102703.16;;;16.85;41.97
76358;BME280;65185;21.060;105.826;2023-12-22T09:46:25;102711.00;;;16.82;43.28
76358;BME280;65185;21.060;105.826;2023-12-22T09:48:53;102706.63;;;16.74;43.84
76358;BME280;65185;21.060;105.826;2023-12-22T09:51:20;102708.38;;;16.70;45.97
76358;BME280;65185;21.060;105.826;2023-12-22T09:53:48;102711.84;;;16.60;45.51
76358;BME280;65185;21.060;105.826;2023-12-22T09:56:17;102710.97;;;16.60;47.32
76358;BME280;65185;21.060;105.826;2023-12-22T09:58:46;102704.00;;;16.57;48.12
76358;BME280;65185;21.060;105.826;2023-12-22T10:01:14;102709.19;;;16.51;48.83
76358;BME280;65185;21.060;105.826;2023-12-22T10:03:41;102714.44;;;16.51;50.85
76358;BME280;65185;21.060;105.826;2023-12-22T10:06:10;102715.25;;;16.46;48.31
76358;BME280;65185;21.060;105.826;2023-12-22T10:08:38;102721.34;;;16.43;48.85
76358;BME280;65185;21.060;105.826;2023-12-22T10:11:07;102719.59;;;16.38;46.92
76358;BME280;65185;21.060;105.826;2023-12-22T10:13:36;102719.59;;;16.33;48.35
76358;BME280;65185;21.060;105.826;2023-12-22T10:16:06;102719.56;;;16.29;50.32
76358;BME280;65185;21.060;105.826;2023-12-22T10:18:33;102718.66;;;16.27;49.83
76358;BME280;65185;21.060;105.826;2023-12-22T10:21:01;102722.16;;;16.24;50.46
76358;BME280;65185;21.060;105.826;2023-12-22T10:23:28;102725.63;;;16.22;50.65
76358;BME280;65185;21.060;105.826;2023-12-22T10:25:57;102727.38;;;16.17;52.04
76358;BME280;65185;21.060;105.826;2023-12-22T10:28:27;102727.34;;;16.11;50.82
76358;BME280;65185;21.060;105.826;2023-12-22T10:30:54;102728.22;;;16.08;51.00
76358;BME280;65185;21.060;105.826;2023-12-22T10:33:25;102735.13;;;16.03;53.67
76358;BME280;65185;21.060;105.826;2023-12-22T10:35:54;102724.69;;;15.98;53.81
76358;BME280;65185;21.060;105.826;2023-12-22T10:38:21;102734.22;;;15.92;55.07
76358;BME280;65185;21.060;105.826;2023-12-22T10:40:49;102729.81;;;15.88;53.08
76358;BME280;65185;21.060;105.826;2023-12-22T10:43:16;102737.66;;;15.88;53.86
76358;BME280;65185;21.060;105.826;2023-12-22T10:45:43;102742.03;;;15.89;56.34
76358;BME280;65185;21.060;105.826;2023-12-22T10:48:10;102742.03;;;15.89;55.74
76358;BME280;65185;21.060;105.826;2023-12-22T10:50:39;102740.28;;;15.85;52.88
76358;BME280;65185;21.060;105.826;2023-12-22T10:53:07;102740.28;;;15.83;54.23
76358;BME280;65185;21.060;105.826;2023-12-22T10:55:37;102739.38;;;15.83;54.79
76358;BME280;65185;21.060;105.826;2023-12-22T10:58:05;102742.00;;;15.78;53.69
76358;BME280;65185;21.060;105.826;2023-12-22T11:00:33;102738.50;;;15.79;55.79
76358;BME280;65185;21.060;105.826;2023-12-22T11:03:06;102748.94;;;15.79;55.59
76358;BME280;65185;21.060;105.826;2023-12-22T11:05:37;102746.31;;;15.75;54.87
76358;BME280;65185;21.060;105.826;2023-12-22T11:08:08;102755.00;;;15.69;55.61
76358;BME280;65185;21.060;105.826;2023-12-22T11:10:42;102749.72;;;15.66;56.58
76358;BME280;65185;21.060;105.826;2023-12-22T11:13:10;102751.50;;;15.69;56.77
76358;BME280;65185;21.060;105.826;2023-12-22T11:15:40;102748.00;;;15.70;56.23
76358;BME280;65185;21.060;105.826;2023-12-22T11:18:09;102750.66;;;15.73;54.45
76358;BME280;65185;21.060;105.826;2023-12-22T11:20:36;102757.63;;;15.74;54.97
76358;BME280;65185;21.060;105.826;2023-12-22T11:23:04;102763.75;;;15.76;54.41
76358;BME280;65185;21.060;105.826;2023-12-22T11:25:32;102763.75;;;15.74;53.78
76358;BME280;65185;21.060;105.826;2023-12-22T11:27:59;102764.63;;;15.75;53.38
76358;BME280;65185;21.060;105.826;2023-12-22T11:30:28;102765.47;;;15.71;53.30
76358;BME280;65185;21.060;105.826;2023-12-22T11:32:56;102774.19;;;15.73;52.90
76358;BME280;65185;21.060;105.826;2023-12-22T11:35:24;102773.31;;;15.74;51.46
76358;BME280;65185;21.060;105.826;2023-12-22T11:37:53;102768.97;;;15.76;50.64
76358;BME280;65185;21.060;105.826;2023-12-22T11:40:21;102787.28;;;15.79;49.87
76358;BME280;65185;21.060;105.826;2023-12-22T11:42:49;102786.44;;;15.78;50.06
76358;BME280;65185;21.060;105.826;2023-12-22T11:45:18;102796.00;;;15.81;50.29
76358;BME280;65185;21.060;105.826;2023-12-22T11:47:46;102793.44;;;15.84;48.75
76358;BME280;65185;21.060;105.826;2023-12-22T11:50:30;102806.50;;;15.85;48.55
76358;BME280;65185;21.060;105.826;2023-12-22T11:53:21;102805.63;;;15.86;47.97
76358;BME280;65185;21.060;105.826;2023-12-22T11:56:05;102807.41;;;15.89;46.85
76358;BME280;65185;21.060;105.826;2023-12-22T11:58:47;102816.13;;;15.91;46.61
76358;BME280;65185;21.060;105.826;2023-12-22T12:01:25;102823.13;;;15.95;47.01
76358;BME280;65185;21.060;105.826;2023-12-22T12:04:03;102824.00;;;15.95;47.08
76358;BME280;65185;21.060;105.826;2023-12-22T12:06:33;102814.41;;;15.93;46.88
76358;BME280;65185;21.060;105.826;2023-12-22T12:09:07;102825.75;;;15.98;46.68
76358;BME280;65185;21.060;105.826;2023-12-22T12:14:31;102830.09;;;15.97;47.03
76358;BME280;65185;21.060;105.826;2023-12-22T12:17:07;102839.66;;;15.94;46.56
76358;BME280;65185;21.060;105.826;2023-12-22T12:19:37;102837.94;;;15.96;46.43
76358;BME280;65185;21.060;105.826;2023-12-22T12:22:12;102843.16;;;15.93;45.57
76358;BME280;65185;21.060;105.826;2023-12-22T12:24:41;102848.41;;;15.93;46.70
76358;BME280;65185;21.060;105.826;2023-12-22T12:27:09;102852.75;;;15.95;45.95
76358;BME280;65185;21.060;105.826;2023-12-22T12:29:36;102857.97;;;15.95;46.28
76358;BME280;65185;21.060;105.826;2023-12-22T12:32:06;102865.81;;;15.95;46.45
76358;BME280;65185;21.060;105.826;2023-12-22T12:34:33;102868.44;;;15.94;45.39
76358;BME280;65185;21.060;105.826;2023-12-22T12:37:01;102870.16;;;15.93;45.59
76358;BME280;65185;21.060;105.826;2023-12-22T12:39:30;102872.75;;;15.90;44.98
76358;BME280;65185;21.060;105.826;2023-12-22T12:42:01;102880.59;;;15.89;46.07